Time;durP1;ratioP1;P1;durP2;ratioP2;P2;SDS_P1;SDS_P2;PMS_P1;PMS_P2;Temp;Humidity;BMP_temperature;BMP_pressure;BME280_temperature;BME280_humidity;BME280_pressure;Samples;Min_cycle;Max_cycle;Signal;HPM_P1;HPM_P2
2023/06/09 00:00:17;;;;;;;1.08;0.98;;;20.00;35.70;;;;;;5126490;27;20184;-80
2023/06/09 00:02:45;;;;;;;1.23;1.00;;;20.00;35.60;;;;;;5092354;28;20165;-82
2023/06/09 00:05:11;;;;;;;1.27;1.17;;;20.00;35.60;;;;;;5092416;28;20164;-83
2023/06/09 00:07:37;;;;;;;1.20;1.10;;;20.00;35.60;;;;;;5126261;27;20169;-82
2023/06/09 00:10:04;;;;;;;1.17;1.08;;;20.00;35.60;;;;;;5126219;27;20161;-81
2023/06/09 00:12:30;;;;;;;0.93;0.82;;;20.00;35.70;;;;;;5108935;28;20164;-82
2023/06/09 00:14:55;;;;;;;0.77;0.77;;;20.00;35.60;;;;;;5108981;28;20243;-82
2023/06/09 00:17:24;;;;;;;1.50;1.20;;;19.90;35.70;;;;;;5109331;28;20164;-82
2023/06/09 00:19:52;;;;;;;1.15;1.00;;;19.90;35.60;;;;;;5108424;28;20224;-80
2023/06/09 00:22:19;;;;;;;0.90;0.90;;;19.90;35.70;;;;;;5108776;28;20164;-81
2023/06/09 00:24:45;;;;;;;1.08;0.98;;;19.90;35.70;;;;;;5108884;28;20246;-82
2023/06/09 00:27:11;;;;;;;0.88;0.82;;;20.00;35.70;;;;;;5125862;27;20515;-80
2023/06/09 00:29:37;;;;;;;1.20;1.10;;;19.90;35.70;;;;;;5108613;28;20156;-82
2023/06/09 00:32:03;;;;;;;1.20;1.10;;;19.90;35.70;;;;;;5099784;28;20210;-81
2023/06/09 00:34:29;;;;;;;1.02;1.00;;;19.90;35.80;;;;;;5078078;28;20222;-80
2023/06/09 00:36:55;;;;;;;1.20;1.10;;;19.90;35.70;;;;;;5095153;28;20648;-83
2023/06/09 00:39:20;;;;;;;1.20;1.10;;;19.90;35.70;;;;;;5095076;28;20227;-82
2023/06/09 00:41:46;;;;;;;0.77;0.77;;;19.90;35.70;;;;;;5111888;28;20145;-82
2023/06/09 00:44:12;;;;;;;1.02;0.98;;;20.00;35.70;;;;;;5077917;28;20165;-82
2023/06/09 00:46:39;;;;;;;1.10;1.00;;;19.90;35.70;;;;;;5094719;28;20157;-82
2023/06/09 00:49:05;;;;;;;1.30;1.13;;;19.90;35.70;;;;;;5111729;28;20554;-82
2023/06/09 00:51:30;;;;;;;1.17;1.08;;;20.00;35.80;;;;;;5111733;27;20153;-80
2023/06/09 00:53:56;;;;;;;1.58;0.95;;;19.90;35.70;;;;;;5094501;28;20207;-82
2023/06/09 00:56:23;;;;;;;0.80;0.80;;;19.90;35.70;;;;;;5094403;28;20176;-82
2023/06/09 00:58:49;;;;;;;1.02;0.90;;;20.00;35.70;;;;;;5094379;28;20165;-81
2023/06/09 01:01:15;;;;;;;0.90;0.90;;;19.90;35.70;;;;;;5094370;28;20647;-81
2023/06/09 01:03:40;;;;;;;1.30;1.20;;;19.90;35.70;;;;;;5095888;28;20207;-81
2023/06/09 01:06:12;;;;;;;0.80;0.80;;;19.90;35.70;;;;;;5077771;28;20184;-81
2023/06/09 01:08:41;;;;;;;1.25;1.10;;;19.90;35.80;;;;;;5095480;28;20513;-82
2023/06/09 01:11:13;;;;;;;1.10;1.00;;;19.90;35.70;;;;;;5094331;28;20156;-80
2023/06/09 01:13:48;;;;;;;1.38;1.20;;;19.90;36.50;;;;;;5094279;28;20145;-80
2023/06/09 01:16:22;;;;;;;1.67;1.23;;;19.90;35.80;;;;;;5111882;27;20152;-82
2023/06/09 01:18:48;;;;;;;0.93;0.90;;;19.90;35.90;;;;;;5094235;28;20173;-81
2023/06/09 01:21:34;;;;;;;1.20;1.10;;;19.90;35.90;;;;;;5094367;28;20362;-83
2023/06/09 01:24:19;;;;;;;1.13;1.02;;;19.90;35.90;;;;;;5111308;27;20152;-80
2023/06/09 01:26:44;;;;;;;1.08;0.98;;;19.90;35.90;;;;;;5093900;28;20160;-82
2023/06/09 01:29:10;;;;;;;1.30;1.20;;;19.90;36.00;;;;;;5095003;28;20149;-81
2023/06/09 01:31:36;;;;;;;0.93;0.93;;;19.90;35.90;;;;;;5093822;28;20559;-82
2023/06/09 01:34:02;;;;;;;1.33;1.13;;;19.80;35.90;;;;;;5076835;28;20636;-82
2023/06/09 01:36:28;;;;;;;1.20;1.10;;;19.90;36.00;;;;;;5093661;28;20168;-81
2023/06/09 01:38:53;;;;;;;1.35;0.90;;;19.90;36.00;;;;;;5095055;28;20251;-82
2023/06/09 01:41:20;;;;;;;1.13;0.93;;;19.90;36.00;;;;;;5076633;28;20283;-82
2023/06/09 01:43:46;;;;;;;1.35;1.10;;;19.90;36.10;;;;;;5075874;28;20161;-81
2023/06/09 01:46:11;;;;;;;1.15;0.85;;;19.90;36.10;;;;;;5094712;28;20211;-83
2023/06/09 01:49:09;;;;;;;1.40;1.30;;;19.90;36.10;;;;;;5093439;28;20161;-82
2023/06/09 01:51:56;;;;;;;1.52;1.20;;;19.90;36.10;;;;;;5093705;28;20179;-81
2023/06/09 01:54:27;;;;;;;0.80;0.80;;;19.90;36.20;;;;;;5093416;28;20606;-83
2023/06/09 01:56:57;;;;;;;1.20;1.10;;;19.90;36.10;;;;;;5094611;28;20619;-81
2023/06/09 01:59:25;;;;;;;1.20;1.10;;;19.90;36.10;;;;;;5093494;28;20324;-82
2023/06/09 02:01:51;;;;;;;1.20;1.10;;;19.90;36.10;;;;;;5093360;28;20149;-82
2023/06/09 02:04:17;;;;;;;0.80;0.80;;;19.90;36.20;;;;;;5076724;28;20157;-82
2023/06/09 02:06:42;;;;;;;1.27;1.00;;;19.90;36.20;;;;;;5093096;28;20241;-81
2023/06/09 02:09:09;;;;;;;1.10;1.00;;;19.90;36.20;;;;;;5094409;28;20161;-80
2023/06/09 02:11:36;;;;;;;1.08;0.98;;;19.90;36.20;;;;;;5092988;28;20165;-81
2023/06/09 02:14:01;;;;;;;0.90;0.90;;;19.90;36.20;;;;;;5092939;28;20160;-82
2023/06/09 02:16:27;;;;;;;1.20;1.10;;;19.90;36.20;;;;;;5094223;28;20153;-81
2023/06/09 02:18:53;;;;;;;1.20;1.10;;;19.90;36.30;;;;;;5092852;28;20160;-80
2023/06/09 02:21:19;;;;;;;1.10;0.95;;;19.90;36.30;;;;;;5075972;28;20236;-81
2023/06/09 02:23:45;;;;;;;1.13;1.02;;;19.90;36.20;;;;;;5093485;28;20211;-83
2023/06/09 02:26:10;;;;;;;1.23;1.13;;;19.90;36.30;;;;;;5092783;28;20252;-82
2023/06/09 02:28:36;;;;;;;1.20;1.10;;;19.90;36.30;;;;;;5093945;28;20198;-82
2023/06/09 02:31:03;;;;;;;1.13;0.93;;;19.90;36.30;;;;;;5093879;28;20557;-81
2023/06/09 02:33:29;;;;;;;1.20;1.10;;;19.90;36.30;;;;;;5092693;28;20657;-83
2023/06/09 02:35:55;;;;;;;1.00;1.00;;;19.80;36.20;;;;;;5092736;28;20152;-81
2023/06/09 02:38:21;;;;;;;1.25;0.80;;;19.90;36.40;;;;;;5093816;28;20149;-81
2023/06/09 02:40:48;;;;;;;1.10;1.00;;;20.00;36.40;;;;;;5092477;28;20231;-80
2023/06/09 02:43:14;;;;;;;1.10;1.00;;;19.90;36.40;;;;;;5109578;28;20562;-81
2023/06/09 02:45:40;;;;;;;1.20;1.10;;;19.90;36.40;;;;;;5075666;28;20157;-81
2023/06/09 02:48:06;;;;;;;1.27;1.17;;;19.90;36.40;;;;;;5075588;28;20152;-83
2023/06/09 02:50:31;;;;;;;1.10;1.00;;;19.90;36.40;;;;;;5092313;28;20156;-82
2023/06/09 02:52:57;;;;;;;1.23;1.10;;;19.90;36.40;;;;;;5093513;28;20183;-83
2023/06/09 02:55:23;;;;;;;1.05;0.95;;;19.80;36.40;;;;;;5093774;28;20611;-84
2023/06/09 02:57:48;;;;;;;1.40;1.27;;;19.90;36.40;;;;;;5092796;28;20597;-85
2023/06/09 03:00:14;;;;;;;1.08;0.98;;;19.90;36.40;;;;;;5092753;28;20192;-82
2023/06/09 03:02:41;;;;;;;1.25;1.15;;;19.90;36.40;;;;;;5092780;28;20669;-84
2023/06/09 03:05:08;;;;;;;1.15;1.00;;;19.90;36.40;;;;;;5109596;28;20152;-83
2023/06/09 03:07:33;;;;;;;1.20;1.10;;;19.90;36.40;;;;;;5109785;28;20152;-84
2023/06/09 03:09:59;;;;;;;1.20;1.10;;;19.90;36.40;;;;;;5075599;28;20167;-82
2023/06/09 03:12:25;;;;;;;0.75;0.75;;;19.90;36.40;;;;;;5092553;28;20627;-83
2023/06/09 03:14:51;;;;;;;1.55;1.30;;;19.90;36.40;;;;;;5093743;28;20149;-83
2023/06/09 03:17:17;;;;;;;1.10;1.00;;;20.00;36.40;;;;;;5092376;28;20161;-84
2023/06/09 03:19:43;;;;;;;0.80;0.80;;;19.90;36.40;;;;;;5092153;28;20255;-82
2023/06/09 03:22:09;;;;;;;1.38;1.15;;;19.90;36.40;;;;;;5109260;28;20160;-85
2023/06/09 03:24:34;;;;;;;0.90;0.90;;;20.00;36.40;;;;;;5093651;28;20659;-82
2023/06/09 03:27:00;;;;;;;1.50;1.10;;;19.90;36.40;;;;;;5092335;28;20178;-82
2023/06/09 03:29:28;;;;;;;1.27;1.17;;;20.00;36.40;;;;;;5093440;28;20551;-84
2023/06/09 03:31:54;;;;;;;1.48;1.00;;;20.00;36.40;;;;;;5093277;28;20153;-82
2023/06/09 03:34:20;;;;;;;1.35;1.25;;;20.00;36.40;;;;;;5092537;28;20165;-83
2023/06/09 03:36:46;;;;;;;1.30;1.15;;;20.00;36.40;;;;;;5092040;28;20243;-84
2023/06/09 03:39:12;;;;;;;1.20;1.10;;;20.00;36.40;;;;;;5092058;28;20244;-84
2023/06/09 03:41:38;;;;;;;1.40;1.30;;;20.00;36.30;;;;;;5075133;28;20161;-83
2023/06/09 03:44:04;;;;;;;1.10;1.00;;;20.00;36.30;;;;;;5091925;28;20536;-82
2023/06/09 03:46:30;;;;;;;1.00;0.90;;;20.00;36.40;;;;;;5092372;28;20165;-82
2023/06/09 03:48:56;;;;;;;1.10;1.00;;;20.00;37.10;;;;;;5109136;28;20237;-81
2023/06/09 03:51:21;;;;;;;1.10;1.00;;;20.10;36.30;;;;;;5093116;28;20650;-83
2023/06/09 03:53:47;;;;;;;1.02;0.93;;;20.10;36.30;;;;;;5075422;28;20169;-85
2023/06/09 03:56:13;;;;;;;1.50;1.10;;;20.00;36.30;;;;;;5093068;28;20178;-83
2023/06/09 03:58:39;;;;;;;0.98;0.93;;;20.10;36.30;;;;;;5108991;28;20171;-82
2023/06/09 04:01:10;;;;;;;1.20;1.10;;;20.10;36.30;;;;;;5092623;28;20193;-83
2023/06/09 04:03:37;;;;;;;1.20;1.10;;;20.10;36.20;;;;;;5075635;28;20168;-82
2023/06/09 04:06:03;;;;;;;0.82;0.82;;;20.20;36.30;;;;;;5092223;28;20145;-82
2023/06/09 04:08:29;;;;;;;1.05;1.00;;;20.20;36.20;;;;;;5078762;28;20526;-84
2023/06/09 04:10:55;;;;;;;1.27;1.17;;;20.20;36.20;;;;;;5095789;28;20156;-82
2023/06/09 04:13:20;;;;;;;0.93;0.85;;;20.20;36.10;;;;;;5095939;28;20164;-83
2023/06/09 04:15:46;;;;;;;1.10;1.00;;;20.20;36.10;;;;;;5078804;28;20654;-83
2023/06/09 04:18:12;;;;;;;1.08;0.98;;;20.20;36.10;;;;;;5078422;28;20545;-83
2023/06/09 04:20:38;;;;;;;1.17;1.08;;;20.30;36.20;;;;;;5095031;28;20213;-82
2023/06/09 04:23:04;;;;;;;1.13;1.05;;;20.20;36.10;;;;;;5096439;28;20157;-82
2023/06/09 04:25:29;;;;;;;0.90;0.90;;;20.30;36.10;;;;;;5095277;28;20235;-84
2023/06/09 04:27:55;;;;;;;1.10;1.00;;;20.30;36.20;;;;;;5095192;28;20157;-85
2023/06/09 04:30:29;;;;;;;1.02;0.90;;;20.30;36.20;;;;;;5095187;28;20168;-82
2023/06/09 04:32:58;;;;;;;1.10;0.98;;;20.20;36.10;;;;;;5111145;28;20152;-84
2023/06/09 04:35:23;;;;;;;0.93;0.93;;;20.20;36.80;;;;;;5095123;28;20153;-84
2023/06/09 04:37:49;;;;;;;1.20;1.10;;;20.30;36.10;;;;;;5095013;28;20157;-83
2023/06/09 04:40:21;;;;;;;1.20;1.10;;;20.30;36.20;;;;;;5094730;28;20196;-82
2023/06/09 04:42:51;;;;;;;1.20;1.10;;;20.30;36.20;;;;;;5094850;28;20165;-82
2023/06/09 04:45:18;;;;;;;1.30;1.20;;;20.30;36.10;;;;;;5095458;28;20164;-82
2023/06/09 04:47:47;;;;;;;1.33;1.10;;;20.30;36.20;;;;;;5094827;28;20161;-82
2023/06/09 04:50:15;;;;;;;1.05;0.95;;;20.40;36.00;;;;;;5078057;28;20179;-83
2023/06/09 04:52:42;;;;;;;1.23;1.10;;;20.40;36.00;;;;;;5096051;28;20202;-84
2023/06/09 04:55:08;;;;;;;1.48;1.38;;;20.40;36.10;;;;;;5094575;28;20598;-85
2023/06/09 04:57:34;;;;;;;1.00;0.90;;;20.30;36.00;;;;;;5094595;28;20260;-81
2023/06/09 05:00:15;;;;;;;1.10;1.00;;;20.30;36.00;;;;;;5077564;28;20196;-83
2023/06/09 05:02:42;;;;;;;1.15;1.05;;;20.40;36.10;;;;;;5095629;28;20152;-81
2023/06/09 05:05:09;;;;;;;1.15;1.00;;;20.40;36.10;;;;;;5094374;28;20157;-82
2023/06/09 05:07:35;;;;;;;0.90;0.90;;;20.40;36.10;;;;;;5093182;28;20176;-83
2023/06/09 05:10:01;;;;;;;1.10;1.00;;;20.40;35.90;;;;;;5109852;28;20157;-84
2023/06/09 05:12:27;;;;;;;1.20;1.00;;;20.40;35.90;;;;;;5093401;28;20168;-85
2023/06/09 05:14:53;;;;;;;1.15;1.00;;;20.40;35.90;;;;;;5057321;28;20169;-82
2023/06/09 05:17:18;;;;;;;1.25;1.10;;;20.40;35.90;;;;;;5073847;28;20149;-84
2023/06/09 05:19:44;;;;;;;1.00;0.90;;;20.50;35.90;;;;;;5090642;28;20576;-82
2023/06/09 05:22:10;;;;;;;1.20;1.10;;;20.40;35.90;;;;;;5073835;28;20210;-83
2023/06/09 05:24:36;;;;;;;1.00;0.90;;;20.50;35.90;;;;;;5075247;28;20183;-85
2023/06/09 05:27:01;;;;;;;0.93;0.90;;;20.50;35.90;;;;;;5073764;28;20187;-81
2023/06/09 05:29:27;;;;;;;0.98;0.93;;;20.60;35.90;;;;;;5073750;28;20240;-84
2023/06/09 05:31:53;;;;;;;0.90;0.90;;;20.60;35.80;;;;;;5073686;28;20207;-82
2023/06/09 05:34:19;;;;;;;0.80;0.80;;;20.50;35.80;;;;;;5074777;28;20685;-83
2023/06/09 05:36:44;;;;;;;1.00;0.93;;;20.60;35.70;;;;;;5074765;28;20242;-83
2023/06/09 05:39:10;;;;;;;0.80;0.80;;;20.60;35.80;;;;;;5073472;28;20573;-84
2023/06/09 05:41:36;;;;;;;1.02;0.98;;;20.70;35.80;;;;;;5057097;28;20161;-82
2023/06/09 05:44:02;;;;;;;1.10;1.00;;;20.60;35.60;;;;;;5073139;28;20196;-83
2023/06/09 05:46:28;;;;;;;2.55;1.13;;;20.80;35.70;;;;;;5090281;28;20636;-82
2023/06/09 05:48:53;;;;;;;1.55;0.90;;;20.70;35.60;;;;;;5090298;28;20612;-83
2023/06/09 05:51:19;;;;;;;1.30;1.00;;;20.50;35.70;;;;;;5073204;28;20157;-84
2023/06/09 05:53:46;;;;;;;0.90;0.82;;;20.50;36.10;;;;;;5073389;28;20241;-82
2023/06/09 05:56:14;;;;;;;1.27;1.17;;;20.50;36.20;;;;;;5073563;28;20161;-84
2023/06/09 05:58:39;;;;;;;1.10;1.00;;;20.50;36.30;;;;;;5073557;28;20165;-82
2023/06/09 06:01:07;;;;;;;1.10;1.00;;;20.50;36.40;;;;;;5074542;28;20189;-83
2023/06/09 06:03:33;;;;;;;1.05;1.00;;;20.50;36.40;;;;;;5056670;28;20663;-82
2023/06/09 06:05:58;;;;;;;1.42;1.08;;;20.40;36.60;;;;;;5073154;28;20162;-82
2023/06/09 06:08:24;;;;;;;2.00;1.00;;;20.40;36.70;;;;;;5072907;28;20628;-82
2023/06/09 06:10:51;;;;;;;0.93;0.80;;;20.40;36.90;;;;;;5072845;28;20501;-83
2023/06/09 06:13:17;;;;;;;0.90;0.70;;;20.40;36.80;;;;;;5072577;28;20146;-82
2023/06/09 06:15:43;;;;;;;0.80;0.80;;;20.40;36.90;;;;;;5071407;28;20171;-84
2023/06/09 06:18:09;;;;;;;1.10;0.88;;;20.40;37.00;;;;;;5070825;28;20705;-82
2023/06/09 06:20:34;;;;;;;2.40;0.90;;;20.40;36.90;;;;;;5070360;28;20221;-83
2023/06/09 06:23:01;;;;;;;1.13;0.90;;;20.40;37.10;;;;;;5087401;28;20169;-84
2023/06/09 06:25:28;;;;;;;1.02;1.00;;;20.40;37.10;;;;;;5057021;28;20278;-83
2023/06/09 06:27:55;;;;;;;0.85;0.82;;;20.30;37.20;;;;;;5092074;28;20601;-82
2023/06/09 06:30:21;;;;;;;1.20;0.90;;;20.40;37.20;;;;;;5090714;28;20161;-82
2023/06/09 06:32:53;;;;;;;0.95;0.88;;;20.40;37.10;;;;;;5092644;28;20163;-83
2023/06/09 06:35:26;;;;;;;0.70;0.70;;;20.40;37.30;;;;;;5092714;28;20156;-82
2023/06/09 06:37:52;;;;;;;1.00;0.90;;;20.40;37.30;;;;;;5091704;28;20160;-82
2023/06/09 06:40:17;;;;;;;2.05;0.93;;;20.40;37.50;;;;;;5091578;28;20227;-82
2023/06/09 06:42:43;;;;;;;0.95;0.85;;;20.40;37.60;;;;;;5091788;28;20179;-83
2023/06/09 06:45:09;;;;;;;1.17;0.80;;;20.50;37.50;;;;;;5091725;28;20206;-84
2023/06/09 06:47:35;;;;;;;0.90;0.80;;;20.50;37.50;;;;;;5093263;28;20153;-84
2023/06/09 06:50:02;;;;;;;0.98;0.90;;;20.40;37.30;;;;;;5093651;28;20516;-83
2023/06/09 06:52:28;;;;;;;1.23;0.80;;;20.40;37.80;;;;;;5076152;28;20161;-84
2023/06/09 06:54:54;;;;;;;0.80;0.80;;;20.50;37.70;;;;;;5058451;28;20156;-82
2023/06/09 06:57:19;;;;;;;0.80;0.80;;;20.40;37.70;;;;;;5057601;28;20165;-82
2023/06/09 06:59:52;;;;;;;0.80;0.73;;;20.30;37.90;;;;;;5058609;28;20196;-81
2023/06/09 07:02:18;;;;;;;1.10;1.00;;;20.40;37.90;;;;;;5058328;28;20209;-83
2023/06/09 07:04:44;;;;;;;0.90;0.80;;;20.40;37.70;;;;;;5091515;28;20236;-81
2023/06/09 07:07:09;;;;;;;0.98;0.85;;;20.40;38.00;;;;;;5092100;28;20153;-80
2023/06/09 07:09:37;;;;;;;0.70;0.70;;;20.50;38.00;;;;;;5090939;28;20156;-82
2023/06/09 07:12:03;;;;;;;2.78;0.80;;;20.40;38.10;;;;;;5074932;28;20161;-82
2023/06/09 07:14:31;;;;;;;0.98;0.90;;;20.40;38.40;;;;;;5091915;28;20156;-82
2023/06/09 07:16:57;;;;;;;1.00;0.80;;;20.40;39.30;;;;;;5057866;28;20168;-82
2023/06/09 07:19:22;;;;;;;1.60;0.93;;;20.40;38.90;;;;;;5057108;28;20216;-82
2023/06/09 07:21:48;;;;;;;1.20;0.90;;;20.40;39.20;;;;;;5073961;28;20172;-83
2023/06/09 07:24:14;;;;;;;0.80;0.77;;;20.40;38.70;;;;;;5073814;28;20630;-80
2023/06/09 07:26:40;;;;;;;0.93;0.93;;;20.40;38.70;;;;;;5074075;28;20160;-81
2023/06/09 07:29:05;;;;;;;0.88;0.70;;;20.30;38.70;;;;;;5056792;28;20217;-80
2023/06/09 07:31:31;;;;;;;0.80;0.80;;;20.30;38.20;;;;;;5073758;28;20157;-81
2023/06/09 07:33:56;;;;;;;1.02;0.82;;;20.20;38.70;;;;;;5091855;28;20145;-81
2023/06/09 07:36:24;;;;;;;0.80;0.77;;;20.20;38.50;;;;;;5091759;28;20157;-81
2023/06/09 07:38:50;;;;;;;1.10;1.00;;;20.30;38.60;;;;;;5075304;28;20207;-83
2023/06/09 07:41:15;;;;;;;1.20;0.80;;;20.40;38.30;;;;;;5071945;28;20196;-81
2023/06/09 07:43:43;;;;;;;0.85;0.85;;;20.40;38.30;;;;;;5074328;28;20161;-82
2023/06/09 07:46:10;;;;;;;0.95;0.73;;;20.40;38.20;;;;;;5075606;28;20186;-82
2023/06/09 07:48:42;;;;;;;0.70;0.70;;;20.30;38.30;;;;;;5075979;28;20165;-84
2023/06/09 07:51:09;;;;;;;2.30;0.82;;;20.40;38.10;;;;;;5076474;28;20200;-82
2023/06/09 07:53:36;;;;;;;0.70;0.70;;;20.40;38.10;;;;;;5075974;28;20196;-82
2023/06/09 07:56:02;;;;;;;0.80;0.80;;;20.40;38.10;;;;;;5075547;28;20212;-83
2023/06/09 07:58:28;;;;;;;0.88;0.80;;;20.40;38.00;;;;;;5078891;28;20650;-84
2023/06/09 08:00:53;;;;;;;0.77;0.77;;;20.30;38.10;;;;;;5095685;28;20192;-81
2023/06/09 08:03:19;;;;;;;0.70;0.70;;;20.30;38.00;;;;;;5095455;28;20160;-82
2023/06/09 08:08:57;;;;;;;;;;;;;;;;;;;;;
2023/06/09 08:12:02;;;;;;;;;;;;;;;;;;;;;
2023/06/09 08:14:38;;;;;;;1.27;0.45;;;20.40;37.60;;;;;;5005277;28;20283;-83
2023/06/09 08:17:04;;;;;;;0.88;0.73;;;20.40;37.60;;;;;;4979537;28;20195;-81
2023/06/09 08:19:30;;;;;;;0.52;0.52;;;20.30;37.60;;;;;;4978305;28;20258;-81
2023/06/09 08:21:57;;;;;;;0.57;0.57;;;20.40;37.80;;;;;;4978165;28;20180;-81
2023/06/09 08:24:23;;;;;;;0.50;0.50;;;20.50;37.60;;;;;;4978426;28;20657;-85
2023/06/09 08:26:49;;;;;;;0.60;0.60;;;20.40;37.40;;;;;;4978488;28;20184;-82
2023/06/09 08:29:16;;;;;;;0.93;0.75;;;20.30;37.50;;;;;;4978147;28;20241;-81
2023/06/09 08:31:42;;;;;;;0.65;0.65;;;20.30;37.60;;;;;;4978525;28;20235;-82
2023/06/09 08:34:07;;;;;;;0.82;0.80;;;20.30;37.60;;;;;;4962168;28;20301;-82
2023/06/09 08:36:33;;;;;;;0.90;0.73;;;20.30;37.40;;;;;;4979623;28;20160;-83
2023/06/09 08:38:59;;;;;;;0.60;0.60;;;20.30;37.40;;;;;;4978532;28;20263;-81
2023/06/09 08:41:27;;;;;;;1.10;0.70;;;20.30;37.30;;;;;;4978248;28;20291;-81
2023/06/09 08:43:53;;;;;;;0.50;0.50;;;20.40;37.30;;;;;;4982409;28;20210;-81
2023/06/09 08:46:20;;;;;;;0.70;0.60;;;20.30;37.50;;;;;;5052960;28;20685;-81
2023/06/09 08:48:50;;;;;;;0.65;0.65;;;20.40;37.30;;;;;;5091839;28;20567;-79
2023/06/09 08:51:16;;;;;;;0.52;0.52;;;20.40;37.30;;;;;;5074622;28;20157;-80
2023/06/09 08:53:41;;;;;;;0.60;0.60;;;20.40;37.20;;;;;;5075165;28;20158;-81
2023/06/09 08:56:07;;;;;;;0.57;0.50;;;20.40;37.30;;;;;;5057704;28;20169;-80
2023/06/09 08:58:33;;;;;;;0.57;0.57;;;20.50;37.20;;;;;;5093234;28;20153;-80
2023/06/09 09:00:59;;;;;;;0.60;0.60;;;20.50;37.20;;;;;;5081871;28;20193;-81
2023/06/09 09:03:24;;;;;;;0.52;0.52;;;20.60;37.00;;;;;;5082290;28;20173;-82
2023/06/09 09:05:50;;;;;;;0.55;0.55;;;20.60;37.10;;;;;;5082625;28;20194;-81
2023/06/09 09:08:16;;;;;;;1.23;0.50;;;20.60;37.30;;;;;;5080587;28;20157;-79
2023/06/09 09:10:42;;;;;;;0.50;0.50;;;20.60;37.20;;;;;;5082673;28;20265;-81
2023/06/09 09:13:09;;;;;;;0.60;0.50;;;20.70;37.10;;;;;;5090972;28;20639;-79
2023/06/09 09:15:37;;;;;;;0.70;0.50;;;20.60;36.90;;;;;;5086560;28;20169;-82
2023/06/09 09:18:06;;;;;;;1.13;0.38;;;20.60;36.90;;;;;;5104183;28;20255;-81
2023/06/09 09:20:33;;;;;;;0.30;0.30;;;20.60;37.10;;;;;;5103616;28;20216;-81
2023/06/09 09:23:02;;;;;;;0.52;0.47;;;20.70;37.00;;;;;;5086513;28;20211;-79
2023/06/09 09:25:28;;;;;;;0.57;0.50;;;20.70;36.90;;;;;;5083369;28;20233;-80
2023/06/09 09:28:02;;;;;;;0.50;0.50;;;20.60;37.00;;;;;;5102862;28;20157;-79
2023/06/09 09:30:49;;;;;;;0.47;0.47;;;20.60;36.90;;;;;;5104273;28;20620;-81
2023/06/09 09:33:20;;;;;;;0.60;0.60;;;20.60;37.20;;;;;;5103884;28;20165;-80
2023/06/09 09:35:49;;;;;;;0.50;0.50;;;20.70;36.90;;;;;;5102739;28;20172;-79
2023/06/09 09:38:18;;;;;;;0.50;0.50;;;20.70;36.70;;;;;;5102556;28;20192;-81
2023/06/09 09:40:45;;;;;;;0.55;0.50;;;20.70;36.90;;;;;;5086997;28;20599;-81
2023/06/09 09:43:11;;;;;;;0.40;0.40;;;20.70;36.90;;;;;;5103575;28;20233;-81
2023/06/09 09:45:39;;;;;;;0.50;0.50;;;20.50;37.50;;;;;;5084392;28;20204;-82
2023/06/09 09:48:09;;;;;;;1.98;0.50;;;20.50;37.40;;;;;;5102532;28;20157;-80
2023/06/09 09:50:37;;;;;;;0.75;0.57;;;20.60;37.60;;;;;;5085991;28;20161;-82
2023/06/09 09:53:04;;;;;;;0.70;0.50;;;20.70;37.70;;;;;;5083730;28;20235;-82
2023/06/09 09:55:30;;;;;;;0.50;0.50;;;20.80;37.90;;;;;;5094251;28;20159;-82
2023/06/09 09:57:56;;;;;;;0.60;0.60;;;20.70;38.10;;;;;;5094374;28;20160;-80
2023/06/09 10:00:23;;;;;;;0.40;0.40;;;20.50;38.30;;;;;;5094317;28;20200;-83
2023/06/09 10:02:49;;;;;;;0.40;0.40;;;20.40;38.70;;;;;;5093971;28;20526;-82
2023/06/09 10:05:16;;;;;;;2.17;0.50;;;20.40;38.90;;;;;;5093286;28;20157;-81
2023/06/09 10:07:42;;;;;;;0.47;0.47;;;20.30;38.90;;;;;;5077509;28;20165;-82
2023/06/09 10:10:08;;;;;;;0.40;0.40;;;20.30;39.30;;;;;;5076994;28;20203;-81
2023/06/09 10:12:37;;;;;;;0.95;0.55;;;20.30;39.40;;;;;;5077658;28;20534;-82
2023/06/09 10:15:04;;;;;;;0.40;0.40;;;20.20;39.70;;;;;;5094969;28;20623;-82
2023/06/09 10:17:29;;;;;;;1.15;0.40;;;20.10;39.90;;;;;;5094260;28;20163;-81
2023/06/09 10:19:56;;;;;;;0.50;0.40;;;20.10;40.10;;;;;;5094809;28;20323;-82
2023/06/09 10:22:23;;;;;;;0.40;0.40;;;20.00;40.30;;;;;;5096641;28;20164;-81
2023/06/09 10:24:48;;;;;;;0.40;0.40;;;20.00;40.30;;;;;;5093843;28;20157;-81
2023/06/09 10:27:14;;;;;;;0.50;0.50;;;20.20;40.00;;;;;;5092961;28;20167;-81
2023/06/09 10:29:46;;;;;;;0.50;0.50;;;20.30;39.90;;;;;;5074958;28;20183;-82
2023/06/09 10:32:12;;;;;;;1.05;0.57;;;20.30;39.40;;;;;;5071572;28;20185;-81
2023/06/09 10:34:38;;;;;;;0.30;0.30;;;20.40;39.20;;;;;;5055193;28;20226;-82
2023/06/09 10:37:04;;;;;;;0.60;0.60;;;20.50;39.10;;;;;;5071833;28;20285;-81
2023/06/09 10:39:39;;;;;;;3.25;0.60;;;20.50;39.20;;;;;;5054773;28;20256;-83
2023/06/09 10:42:11;;;;;;;1.20;0.50;;;20.40;39.10;;;;;;5054561;28;20255;-81
2023/06/09 10:44:44;;;;;;;0.40;0.40;;;20.30;39.50;;;;;;5053869;28;20594;-82
2023/06/09 10:47:10;;;;;;;1.67;0.50;;;20.20;39.60;;;;;;5037056;28;20278;-83
2023/06/09 10:49:38;;;;;;;0.50;0.50;;;20.30;39.70;;;;;;5037258;28;20651;-82
2023/06/09 10:52:07;;;;;;;0.50;0.50;;;20.20;39.70;;;;;;5037169;28;20220;-82
2023/06/09 10:54:35;;;;;;;1.25;0.65;;;20.20;39.70;;;;;;5053879;28;20192;-81
2023/06/09 10:57:06;;;;;;;1.67;0.50;;;20.20;39.70;;;;;;5038112;28;20186;-81
2023/06/09 10:59:52;;;;;;;0.43;0.43;;;20.40;39.70;;;;;;5037706;28;20173;-81
2023/06/09 11:02:19;;;;;;;2.72;0.40;;;20.40;39.60;;;;;;5057411;28;20189;-84
2023/06/09 11:04:49;;;;;;;3.40;0.68;;;20.50;39.40;;;;;;5058645;28;20623;-82
2023/06/09 11:07:18;;;;;;;0.60;0.38;;;20.40;39.50;;;;;;5058639;28;20534;-82
2023/06/09 11:10:25;;;;;;;1.45;0.55;;;20.30;39.70;;;;;;5058735;28;20168;-84
2023/06/09 11:12:52;;;;;;;0.80;0.50;;;20.30;39.80;;;;;;5078309;28;20527;-82
2023/06/09 11:15:18;;;;;;;0.30;0.30;;;20.40;39.70;;;;;;5059446;28;20169;-82
2023/06/09 11:17:46;;;;;;;0.50;0.30;;;20.30;39.80;;;;;;5092444;28;20179;-82
2023/06/09 11:20:14;;;;;;;0.40;0.40;;;20.40;39.80;;;;;;5058227;28;20585;-81
2023/06/09 11:22:59;;;;;;;0.40;0.35;;;20.20;39.80;;;;;;5093297;28;20170;-80
2023/06/09 11:25:34;;;;;;;2.35;0.50;;;20.10;40.00;;;;;;5075289;28;20653;-79
2023/06/09 11:28:17;;;;;;;0.50;0.50;;;20.10;41.10;;;;;;5075216;28;20148;-81
2023/06/09 11:31:03;;;;;;;0.40;0.40;;;20.10;40.40;;;;;;5092923;28;20161;-80
2023/06/09 11:33:39;;;;;;;1.33;0.40;;;20.00;40.50;;;;;;5091864;28;20167;-81
2023/06/09 11:36:06;;;;;;;0.55;0.50;;;20.00;40.60;;;;;;5075266;28;20145;-81
2023/06/09 11:38:32;;;;;;;0.30;0.30;;;19.90;40.70;;;;;;5075127;28;20153;-78
2023/06/09 11:40:57;;;;;;;0.30;0.30;;;19.90;40.90;;;;;;5092098;28;20251;-81
2023/06/09 11:46:25;;;;;;;0.32;0.30;;;19.90;40.90;;;;;;5071128;28;20895;-77
2023/06/09 11:49:07;;;;;;;0.40;0.40;;;19.90;41.10;;;;;;5070121;28;20592;-76
2023/06/09 11:52:06;;;;;;;0.70;0.40;;;19.80;41.00;;;;;;5069139;28;20559;-82
2023/06/09 11:54:46;;;;;;;0.30;0.30;;;19.90;41.20;;;;;;5071156;28;20670;-81
2023/06/09 11:57:12;;;;;;;0.35;0.35;;;19.80;41.20;;;;;;5070596;28;20154;-80
2023/06/09 11:59:38;;;;;;;0.75;0.30;;;19.80;41.20;;;;;;5068980;28;20153;-80
2023/06/09 12:02:04;;;;;;;2.38;0.35;;;19.80;41.30;;;;;;5070235;28;20227;-82
2023/06/09 12:04:30;;;;;;;0.50;0.40;;;19.90;41.40;;;;;;5053093;28;20201;-80
2023/06/09 12:06:55;;;;;;;0.57;0.50;;;19.80;41.50;;;;;;5070501;28;20150;-81
2023/06/09 12:09:23;;;;;;;0.40;0.40;;;19.80;41.50;;;;;;5069965;28;20154;-80
2023/06/09 12:11:51;;;;;;;0.40;0.40;;;19.80;41.50;;;;;;5067722;28;20177;-81
2023/06/09 12:14:17;;;;;;;0.40;0.40;;;19.80;41.60;;;;;;5068302;28;20211;-79
2023/06/09 12:16:43;;;;;;;0.32;0.32;;;19.80;41.50;;;;;;5069262;28;20165;-81
2023/06/09 12:19:09;;;;;;;0.60;0.60;;;19.80;41.60;;;;;;5068007;28;20164;-81
2023/06/09 12:21:35;;;;;;;1.00;0.40;;;19.80;41.60;;;;;;5068099;28;20146;-79
2023/06/09 12:24:00;;;;;;;0.40;0.40;;;19.80;41.60;;;;;;5069407;28;20169;-80
2023/06/09 12:26:26;;;;;;;0.30;0.30;;;19.80;41.40;;;;;;5069144;28;20534;-80
2023/06/09 12:28:53;;;;;;;0.57;0.40;;;19.80;41.30;;;;;;5069172;28;20508;-78
2023/06/09 12:31:19;;;;;;;0.85;0.40;;;19.80;41.50;;;;;;5067962;28;20173;-79
2023/06/09 12:33:46;;;;;;;0.40;0.40;;;19.80;41.50;;;;;;5069398;28;20162;-80
2023/06/09 12:36:12;;;;;;;0.40;0.40;;;19.80;41.40;;;;;;5070610;28;20189;-83
2023/06/09 12:38:39;;;;;;;0.40;0.40;;;19.80;41.60;;;;;;5069684;28;20223;-81
2023/06/09 12:41:07;;;;;;;0.57;0.50;;;19.80;41.60;;;;;;5069681;28;20152;-80
2023/06/09 12:43:48;;;;;;;0.30;0.30;;;19.80;41.60;;;;;;5051752;28;20154;-81
2023/06/09 12:46:18;;;;;;;1.25;0.50;;;19.80;41.60;;;;;;5051530;28;20217;-78
2023/06/09 12:48:57;;;;;;;0.40;0.40;;;19.80;41.60;;;;;;5069931;28;20157;-79
2023/06/09 12:51:23;;;;;;;0.30;0.30;;;19.80;41.60;;;;;;5068792;28;20233;-81
2023/06/09 12:53:50;;;;;;;0.43;0.40;;;19.70;41.60;;;;;;5068111;28;20504;-80
2023/06/09 12:56:16;;;;;;;0.35;0.30;;;19.80;41.70;;;;;;5062038;28;20170;-78